Terminal Aerodrome Forecast
Issued by NWS Shreveport, LA

Home | Current Version | Previous Version | Text Only | Print | Product List | Glossary On
Versions: 1 2 3 4 5 6 7 8 9 10 11 12 13 14 15 16
232
FTUS44 KSHV 291724
TAFTYR
TAF
KTYR 291724Z 2918/3018 16014G22KT P6SM SCT060 BKN250
      TEMPO 2918/2921 14012KT BKN025 OVC050
     FM292300 20010KT P6SM SKC
     FM300500 27010KT P6SM SKC
     FM301500 27015G25KT P6SM SKC=

USA.gov is the U.S. government's official web portal to all federal, state and local government web resources and services.